createdAt,value
2017-10-11T00:01:03.929Z,91.52
2017-10-11T00:03:33.221Z,91.35
2017-10-11T00:06:02.542Z,91.57
2017-10-11T00:08:30.913Z,91.59
2017-10-11T00:11:00.216Z,91.68
2017-10-11T00:13:31.682Z,91.36
2017-10-11T00:16:00.037Z,91.65
2017-10-11T00:18:28.810Z,91.60
2017-10-11T00:20:57.139Z,91.37
2017-10-11T00:23:26.707Z,91.54
2017-10-11T00:25:56.097Z,91.38
2017-10-11T00:28:25.599Z,91.55
2017-10-11T00:30:54.341Z,91.65
2017-10-11T00:33:22.663Z,91.75
2017-10-11T00:35:51.073Z,91.79
2017-10-11T00:38:20.368Z,91.83
2017-10-11T00:40:49.727Z,92.01
2017-10-11T00:43:18.074Z,91.94
2017-10-11T00:45:46.485Z,91.85
2017-10-11T00:48:14.849Z,91.59
2017-10-11T00:50:43.186Z,91.47
2017-10-11T00:53:12.752Z,91.54
2017-10-11T00:55:41.170Z,91.60
2017-10-11T00:58:10.485Z,91.70
2017-10-11T01:00:40.509Z,91.85
2017-10-11T01:03:09.682Z,91.90
2017-10-11T01:05:38.092Z,91.76
2017-10-11T01:08:06.462Z,91.74
2017-10-11T01:10:35.773Z,91.52
2017-10-11T01:13:05.071Z,91.37
2017-10-11T01:15:34.352Z,91.34
2017-10-11T01:18:03.704Z,91.46
2017-10-11T01:20:34.182Z,91.41
2017-10-11T01:23:03.499Z,91.40
2017-10-11T01:25:32.853Z,91.61
2017-10-11T01:28:02.133Z,91.49
2017-10-11T01:30:30.470Z,91.16
2017-10-11T01:32:59.788Z,90.94
2017-10-11T01:35:29.097Z,90.76
2017-10-11T01:37:57.432Z,90.57
2017-10-11T01:40:30.494Z,90.48
2017-10-11T01:42:59.155Z,90.32
2017-10-11T01:45:28.458Z,90.40
2017-10-11T01:47:56.807Z,90.32
2017-10-11T01:50:25.200Z,90.25
2017-10-11T01:52:55.467Z,90.36
2017-10-11T01:55:23.794Z,90.94
2017-10-11T01:57:52.204Z,91.42
2017-10-11T02:00:20.624Z,91.47
2017-10-11T02:02:49.369Z,91.64
2017-10-11T02:05:18.854Z,91.39
2017-10-11T02:07:48.177Z,91.36
2017-10-11T02:10:16.569Z,91.17
2017-10-11T02:12:44.952Z,90.83
2017-10-11T02:15:13.712Z,90.28
2017-10-11T02:17:42.040Z,89.71
2017-10-11T02:20:10.369Z,89.66
2017-10-11T02:22:39.668Z,89.94
2017-10-11T02:25:08.972Z,89.79
2017-10-11T02:27:38.296Z,89.91
2017-10-11T02:42:09.685Z,89.69
2017-10-11T02:44:38.254Z,89.89
2017-10-11T02:47:06.605Z,89.63
2017-10-11T02:49:34.933Z,89.54
2017-10-11T02:52:04.262Z,89.75
2017-10-11T02:54:33.572Z,89.77
2017-10-11T02:57:01.938Z,89.37
2017-10-11T02:59:31.255Z,89.08
2017-10-11T03:01:59.610Z,88.95
2017-10-11T03:04:28.016Z,88.94
2017-10-11T03:06:56.379Z,88.97
2017-10-11T03:09:25.672Z,89.08
2017-10-11T03:11:54.997Z,88.74
2017-10-11T03:14:23.343Z,89.15
2017-10-11T03:16:51.743Z,89.36
2017-10-11T03:19:21.105Z,88.98
2017-10-11T03:21:49.418Z,89.44
2017-10-11T03:24:18.784Z,89.24
2017-10-11T03:26:48.637Z,89.20
2017-10-11T03:29:18.048Z,89.35
2017-10-11T03:31:47.165Z,89.15
2017-10-11T03:34:15.617Z,89.33
2017-10-11T03:36:45.328Z,88.96
2017-10-11T03:39:14.511Z,88.85
2017-10-11T03:41:42.899Z,89.14
2017-10-11T03:44:11.335Z,89.12
2017-10-11T03:46:39.693Z,89.13
2017-10-11T03:49:08.071Z,88.94
2017-10-11T03:51:36.436Z,88.80
2017-10-11T03:54:05.827Z,88.98
2017-10-11T03:56:34.170Z,89.02
2017-10-11T03:59:02.534Z,88.93
2017-10-11T04:01:30.926Z,89.35
2017-10-11T04:04:02.585Z,89.21
2017-10-11T04:06:31.019Z,89.16
2017-10-11T04:09:00.352Z,89.49
2017-10-11T04:11:28.680Z,89.40
2017-10-11T04:13:57.091Z,89.13
2017-10-11T04:16:25.460Z,89.78
2017-10-11T04:18:55.083Z,89.83
2017-10-11T04:21:23.458Z,89.63
2017-10-11T04:23:52.753Z,89.37
2017-10-11T04:26:22.027Z,89.48
2017-10-11T04:28:50.440Z,89.55
2017-10-11T04:31:19.536Z,89.64
2017-10-11T04:33:47.868Z,89.78
2017-10-11T04:36:16.229Z,89.67
2017-10-11T04:38:44.558Z,89.66
2017-10-11T04:41:14.614Z,89.61
2017-10-11T04:43:42.933Z,89.99
2017-10-11T04:46:11.287Z,90.49
2017-10-11T04:48:39.649Z,90.42
2017-10-11T04:51:08.311Z,90.14
2017-10-11T04:53:37.590Z,90.17
2017-10-11T04:56:06.913Z,90.52
2017-10-11T04:58:36.297Z,90.45
2017-10-11T05:01:04.613Z,90.29
2017-10-11T05:03:33.095Z,90.12
2017-10-11T05:06:01.487Z,90.10
2017-10-11T05:08:30.649Z,89.78
2017-10-11T05:10:59.961Z,89.34
2017-10-11T05:13:30.272Z,89.21
2017-10-11T05:15:58.582Z,89.75
2017-10-11T05:18:26.927Z,89.87
2017-10-11T05:20:55.342Z,89.77
2017-10-11T05:23:23.700Z,89.71
2017-10-11T05:25:52.816Z,89.79
2017-10-11T05:28:21.134Z,89.12
2017-10-11T05:30:49.491Z,88.83
2017-10-11T05:33:17.815Z,88.70
2017-10-11T05:35:46.241Z,88.69
2017-10-11T05:38:15.530Z,88.50
2017-10-11T05:40:44.803Z,88.51
2017-10-11T05:43:13.246Z,88.41
2017-10-11T05:45:41.582Z,88.15
2017-10-11T05:48:10.899Z,88.15
2017-10-11T05:50:39.303Z,88.13
2017-10-11T05:53:07.642Z,88.21
2017-10-11T05:55:36.739Z,88.39
2017-10-11T05:58:05.100Z,88.16
2017-10-11T06:00:33.453Z,87.76
2017-10-11T06:03:02.707Z,87.97
2017-10-11T06:05:31.096Z,87.99
2017-10-11T06:07:59.430Z,88.50
2017-10-11T06:10:27.822Z,88.62
2017-10-11T06:12:56.248Z,88.07
2017-10-11T06:15:24.625Z,87.74
2017-10-11T06:17:52.993Z,87.89
2017-10-11T06:20:21.634Z,87.52
2017-10-11T06:22:50.339Z,87.51
2017-10-11T06:25:18.742Z,87.45
2017-10-11T06:27:47.855Z,87.34
2017-10-11T06:30:17.014Z,87.78
2017-10-11T06:32:45.416Z,87.23
2017-10-11T06:35:14.716Z,86.96
2017-10-11T06:37:44.024Z,86.98
2017-10-11T06:40:13.318Z,87.00
2017-10-11T06:42:42.641Z,86.21
2017-10-11T06:45:11.041Z,86.44
2017-10-11T06:47:39.352Z,86.48
2017-10-11T06:50:07.838Z,86.27
2017-10-11T06:52:36.163Z,85.94
2017-10-11T06:55:04.572Z,85.96
2017-10-11T06:57:32.913Z,86.16
2017-10-11T07:00:01.282Z,86.51
2017-10-11T07:02:30.629Z,86.40
2017-10-11T07:04:59.351Z,86.40
2017-10-11T07:07:28.571Z,86.06
2017-10-11T07:09:57.258Z,85.38
2017-10-11T07:12:26.637Z,85.28
2017-10-11T07:14:54.967Z,84.56
2017-10-11T07:17:23.329Z,84.33
2017-10-11T07:19:51.705Z,84.28
2017-10-11T07:22:21.002Z,83.38
2017-10-11T07:24:53.354Z,83.66
2017-10-11T07:27:21.784Z,83.73
2017-10-11T07:29:50.444Z,83.92
2017-10-11T07:32:19.741Z,84.14
2017-10-11T07:34:49.043Z,83.79
2017-10-11T07:37:18.328Z,83.56
2017-10-11T07:39:47.647Z,83.00
2017-10-11T07:42:16.930Z,82.42
2017-10-11T07:44:45.358Z,81.85
2017-10-11T07:47:13.687Z,81.97
2017-10-11T07:49:42.114Z,81.58
2017-10-11T07:52:13.827Z,82.26
2017-10-11T07:54:42.645Z,81.76
2017-10-11T07:57:10.973Z,80.66
2017-10-11T07:59:39.296Z,81.08
2017-10-11T08:02:08.607Z,80.93
2017-10-11T08:04:37.913Z,80.73
2017-10-11T08:07:06.299Z,81.00
2017-10-11T08:09:34.672Z,80.68
2017-10-11T08:12:03.051Z,80.39
2017-10-11T08:14:31.394Z,80.21
2017-10-11T08:16:59.739Z,79.51
2017-10-11T08:19:29.111Z,79.54
2017-10-11T08:22:01.154Z,79.92
2017-10-11T08:24:30.596Z,79.80
2017-10-11T08:26:59.164Z,79.28
2017-10-11T08:29:29.716Z,79.68
2017-10-11T08:32:00.865Z,80.09
2017-10-11T08:34:31.571Z,79.76
2017-10-11T08:37:02.138Z,79.57
2017-10-11T08:39:32.306Z,79.78
2017-10-11T08:42:05.827Z,79.86
2017-10-11T08:44:35.440Z,80.20
2017-10-11T08:47:04.059Z,79.95
2017-10-11T08:49:33.923Z,79.48
2017-10-11T08:52:04.777Z,79.73
2017-10-11T08:54:33.966Z,79.21
2017-10-11T08:57:03.494Z,79.49
2017-10-11T08:59:35.163Z,78.91
2017-10-11T09:02:05.268Z,78.58
2017-10-11T09:04:35.505Z,78.17
2017-10-11T09:07:06.687Z,77.56
2017-10-11T09:09:37.116Z,77.87
2017-10-11T09:12:07.226Z,78.40
2017-10-11T09:14:36.453Z,77.37
2017-10-11T09:17:05.975Z,77.48
2017-10-11T09:19:35.444Z,77.24
2017-10-11T09:22:04.684Z,77.25
2017-10-11T09:24:34.042Z,77.38
2017-10-11T09:27:02.395Z,76.22
2017-10-11T09:29:30.740Z,76.96
2017-10-11T09:32:00.095Z,76.84
2017-10-11T09:34:28.488Z,76.09
2017-10-11T09:36:56.849Z,76.70
2017-10-11T09:39:25.184Z,76.57
2017-10-11T09:41:55.422Z,76.53
2017-10-11T09:44:23.764Z,75.91
2017-10-11T09:46:52.481Z,75.39
2017-10-11T09:49:21.773Z,75.57
2017-10-11T09:51:51.335Z,74.38
2017-10-11T09:54:19.765Z,75.02
2017-10-11T09:56:49.040Z,75.25
2017-10-11T09:59:17.455Z,74.80
2017-10-11T10:01:46.804Z,74.71
2017-10-11T10:04:15.239Z,74.42
2017-10-11T10:06:45.370Z,74.46
2017-10-11T10:09:14.731Z,74.08
2017-10-11T10:11:43.059Z,73.90
2017-10-11T10:14:11.828Z,73.58
2017-10-11T10:16:40.191Z,73.28
2017-10-11T10:19:08.520Z,73.51
2017-10-11T10:21:36.873Z,73.81
2017-10-11T10:24:05.224Z,73.58
2017-10-11T10:26:33.636Z,73.10
2017-10-11T10:29:01.986Z,73.46
2017-10-11T10:31:31.301Z,73.62
2017-10-11T10:34:00.583Z,73.03
2017-10-11T10:36:29.387Z,73.76
2017-10-11T10:38:57.757Z,73.28
2017-10-11T10:41:27.275Z,73.48
2017-10-11T10:43:56.599Z,72.40
2017-10-11T10:46:24.950Z,73.75
2017-10-11T10:48:54.260Z,72.70
2017-10-11T10:51:23.566Z,72.93
2017-10-11T10:53:52.898Z,72.69
2017-10-11T10:56:21.249Z,72.67
2017-10-11T10:58:50.622Z,72.75
2017-10-11T11:01:20.277Z,73.49
2017-10-11T11:03:48.598Z,73.77
2017-10-11T11:06:16.992Z,73.09
2017-10-11T11:08:45.312Z,73.16
2017-10-11T11:11:13.686Z,73.41
2017-10-11T11:13:42.050Z,73.41
2017-10-11T11:16:11.363Z,72.83
2017-10-11T11:18:40.657Z,73.23
2017-10-11T11:21:10.213Z,73.63
2017-10-11T11:23:38.953Z,73.59
2017-10-11T11:26:08.242Z,73.59
2017-10-11T11:28:36.637Z,73.65
2017-10-11T11:31:05.915Z,73.55
2017-10-11T11:33:34.338Z,74.00
2017-10-11T11:36:02.676Z,75.17
2017-10-11T11:38:31.096Z,74.07
2017-10-11T11:40:59.457Z,74.26
2017-10-11T11:43:28.780Z,75.49
2017-10-11T11:45:57.119Z,75.44
2017-10-11T11:48:25.511Z,74.31
2017-10-11T11:50:54.976Z,74.81
2017-10-11T11:53:23.491Z,74.41
2017-10-11T11:55:51.894Z,75.18
2017-10-11T11:58:21.223Z,74.93
2017-10-11T12:00:49.588Z,75.32
2017-10-11T12:03:17.949Z,74.84
2017-10-11T12:05:47.098Z,74.54
2017-10-11T12:08:15.634Z,74.84
2017-10-11T12:10:44.976Z,75.34
2017-10-11T12:13:18.547Z,75.30
2017-10-11T12:15:47.817Z,75.19
2017-10-11T12:18:16.553Z,75.13
2017-10-11T12:20:44.911Z,74.96
2017-10-11T12:23:14.229Z,75.04
2017-10-11T12:25:42.650Z,75.30
2017-10-11T12:28:11.009Z,75.31
2017-10-11T12:30:39.377Z,75.55
2017-10-11T12:33:07.744Z,75.45
2017-10-11T12:35:36.129Z,75.89
2017-10-11T12:38:04.480Z,75.83
2017-10-11T12:40:33.784Z,75.76
2017-10-11T12:43:02.882Z,76.10
2017-10-11T12:45:32.112Z,75.91
2017-10-11T12:48:00.458Z,76.24
2017-10-11T12:50:29.833Z,76.58
2017-10-11T12:52:59.382Z,75.88
2017-10-11T12:55:38.680Z,76.19
2017-10-11T12:58:11.492Z,76.74
2017-10-11T13:00:54.794Z,75.91
2017-10-11T13:03:30.143Z,75.83
2017-10-11T13:06:05.503Z,76.09
2017-10-11T13:08:40.408Z,76.21
2017-10-11T13:11:15.415Z,76.32
2017-10-11T13:13:43.869Z,77.08
2017-10-11T13:16:13.171Z,76.88
2017-10-11T13:18:42.469Z,76.66
2017-10-11T13:21:11.763Z,76.64
2017-10-11T13:23:41.084Z,76.47
2017-10-11T13:26:10.379Z,76.66
2017-10-11T13:28:39.176Z,76.32
2017-10-11T13:31:07.737Z,76.52
2017-10-11T13:33:37.047Z,76.50
2017-10-11T13:36:06.369Z,76.62
2017-10-11T13:38:34.734Z,76.71
2017-10-11T13:41:03.133Z,76.77
2017-10-11T13:43:31.496Z,76.91
2017-10-11T13:46:00.803Z,76.92
2017-10-11T13:48:29.156Z,76.62
2017-10-11T13:50:59.715Z,76.67
2017-10-11T13:53:29.013Z,76.57
2017-10-11T13:55:57.383Z,78.34
2017-10-11T13:58:26.696Z,77.53
2017-10-11T14:00:55.044Z,77.64
2017-10-11T14:03:23.457Z,77.10
2017-10-11T14:05:51.834Z,77.12
2017-10-11T14:08:21.136Z,76.88
2017-10-11T14:10:50.440Z,76.77
2017-10-11T14:13:19.110Z,76.67
2017-10-11T14:15:48.413Z,76.52
2017-10-11T14:18:17.728Z,76.83
2017-10-11T14:20:46.094Z,76.53
2017-10-11T14:23:15.379Z,76.78
2017-10-11T14:25:43.787Z,76.89
2017-10-11T14:28:14.299Z,76.33
2017-10-11T14:30:44.562Z,76.38
2017-10-11T14:33:12.913Z,76.58
2017-10-11T14:35:42.297Z,76.30
2017-10-11T14:38:10.636Z,76.32
2017-10-11T14:40:39.901Z,76.36
2017-10-11T14:43:09.305Z,76.15
2017-10-11T14:45:37.620Z,75.92
2017-10-11T14:48:06.045Z,76.34
2017-10-11T14:50:34.372Z,76.54
2017-10-11T14:53:02.747Z,76.61
2017-10-11T14:55:31.081Z,76.54
2017-10-11T14:57:59.513Z,76.90
2017-10-11T15:00:27.864Z,76.41
2017-10-11T15:02:56.235Z,76.58
2017-10-11T15:05:25.544Z,76.13
2017-10-11T15:07:54.848Z,76.34
2017-10-11T15:10:24.178Z,75.87
2017-10-11T15:12:53.118Z,75.31
2017-10-11T15:15:21.538Z,75.49
2017-10-11T15:17:49.903Z,75.45
2017-10-11T15:20:19.720Z,75.60
2017-10-11T15:22:48.814Z,75.83
2017-10-11T15:25:18.116Z,75.91
2017-10-11T15:27:47.429Z,76.81
2017-10-11T15:30:15.789Z,75.78
2017-10-11T15:32:45.131Z,76.11
2017-10-11T15:35:13.538Z,76.65
2017-10-11T15:37:43.096Z,76.24
2017-10-11T15:40:11.470Z,75.93
2017-10-11T15:42:40.591Z,76.04
2017-10-11T15:45:08.950Z,75.66
2017-10-11T15:47:37.302Z,76.03
2017-10-11T15:50:05.641Z,76.90
2017-10-11T15:52:36.132Z,76.61
2017-10-11T15:55:05.496Z,76.50
2017-10-11T15:57:34.584Z,77.41
2017-10-11T16:00:03.125Z,76.89
2017-10-11T16:02:31.493Z,76.67
2017-10-11T16:05:01.209Z,77.20
2017-10-11T16:07:30.757Z,77.91
2017-10-11T16:10:02.511Z,77.87
2017-10-11T16:12:31.775Z,78.69
2017-10-11T16:15:01.126Z,78.42
2017-10-11T16:17:29.498Z,78.52
2017-10-11T16:19:59.116Z,79.70
2017-10-11T16:22:27.484Z,80.52
2017-10-11T16:24:56.823Z,81.11
2017-10-11T16:27:25.212Z,81.16
2017-10-11T16:29:54.719Z,81.69
2017-10-11T16:32:24.451Z,82.20
2017-10-11T16:34:52.795Z,82.10
2017-10-11T16:37:21.875Z,82.43
2017-10-11T16:39:50.771Z,82.86
2017-10-11T16:42:19.108Z,82.63
2017-10-11T16:44:49.369Z,82.95
2017-10-11T16:47:17.730Z,83.18
2017-10-11T16:49:47.022Z,83.14
2017-10-11T16:52:15.835Z,83.39
2017-10-11T16:54:47.865Z,82.97
2017-10-11T16:57:16.216Z,83.41
2017-10-11T16:59:45.751Z,84.13
2017-10-11T17:02:15.069Z,84.17
2017-10-11T17:04:43.415Z,84.04
2017-10-11T17:07:12.747Z,84.03
2017-10-11T17:09:41.471Z,83.88
2017-10-11T17:12:11.048Z,84.27
2017-10-11T17:14:39.410Z,84.97
2017-10-11T17:17:07.798Z,84.86
2017-10-11T17:19:36.194Z,85.06
2017-10-11T17:22:08.631Z,85.23
2017-10-11T17:24:38.048Z,85.53
2017-10-11T17:27:06.605Z,85.94
2017-10-11T17:29:36.176Z,85.54
2017-10-11T17:32:04.603Z,86.13
2017-10-11T17:34:32.986Z,85.93
2017-10-11T17:37:01.402Z,85.38
2017-10-11T17:39:30.033Z,84.87
2017-10-11T17:41:58.437Z,85.36
2017-10-11T17:44:28.069Z,86.16
2017-10-11T17:46:56.394Z,86.52
2017-10-11T17:49:24.816Z,85.83
2017-10-11T17:51:53.209Z,86.01
2017-10-11T17:54:22.747Z,86.44
2017-10-11T17:56:51.159Z,86.42
2017-10-11T17:59:20.953Z,86.89
2017-10-11T18:01:49.411Z,86.46
2017-10-11T18:04:17.740Z,85.89
2017-10-11T18:06:47.180Z,86.85
2017-10-11T18:09:15.525Z,86.28
2017-10-11T18:11:43.887Z,86.31
2017-10-11T18:14:12.272Z,86.17
2017-10-11T18:16:40.624Z,85.73
2017-10-11T18:19:08.990Z,86.85
2017-10-11T18:21:37.337Z,86.67
2017-10-11T18:24:07.040Z,86.62
2017-10-11T18:26:39.009Z,87.25
2017-10-11T18:29:08.627Z,87.55
2017-10-11T18:31:36.981Z,87.12
2017-10-11T18:34:06.264Z,86.58
2017-10-11T18:36:35.017Z,86.50
2017-10-11T18:39:03.369Z,86.69
2017-10-11T18:41:31.760Z,86.73
2017-10-11T18:44:00.126Z,87.06
2017-10-11T18:46:30.152Z,87.07
2017-10-11T18:48:58.487Z,86.84
2017-10-11T18:51:27.630Z,86.67
2017-10-11T18:53:56.196Z,86.38
2017-10-11T18:56:25.442Z,87.42
2017-10-11T18:58:57.194Z,88.21
2017-10-11T19:01:25.553Z,87.29
2017-10-11T19:03:55.128Z,86.94
2017-10-11T19:06:24.429Z,87.24
2017-10-11T19:08:53.159Z,87.82
2017-10-11T19:11:21.562Z,87.60
2017-10-11T19:13:49.939Z,86.93
2017-10-11T19:16:18.320Z,87.98
2017-10-11T19:18:46.692Z,88.04
2017-10-11T19:21:16.389Z,88.35
2017-10-11T19:23:44.717Z,87.71
2017-10-11T19:26:13.100Z,87.41
2017-10-11T19:28:41.461Z,88.05
2017-10-11T19:31:11.665Z,88.41
2017-10-11T19:33:40.034Z,87.76
2017-10-11T19:36:09.114Z,88.43
2017-10-11T19:38:38.619Z,87.92
2017-10-11T19:41:07.927Z,87.71
2017-10-11T19:43:36.310Z,88.19
2017-10-11T19:46:04.705Z,88.39
2017-10-11T19:48:33.067Z,87.77
2017-10-11T19:51:01.446Z,88.44
2017-10-11T19:53:30.749Z,88.03
2017-10-11T19:56:00.325Z,88.63
2017-10-11T19:58:28.810Z,88.71
2017-10-11T20:00:57.154Z,88.34
2017-10-11T20:03:25.574Z,88.30
2017-10-11T20:05:53.908Z,88.76
2017-10-11T20:08:22.286Z,88.97
2017-10-11T20:10:50.662Z,88.57
2017-10-11T20:13:19.064Z,88.22
2017-10-11T20:15:47.429Z,88.39
2017-10-11T20:18:15.760Z,88.05
2017-10-11T20:20:45.096Z,88.08
2017-10-11T20:23:13.423Z,87.54
2017-10-11T20:25:41.843Z,88.24
2017-10-11T20:28:10.220Z,88.35
2017-10-11T20:30:38.618Z,88.27
2017-10-11T20:33:07.887Z,88.10
2017-10-11T20:35:37.184Z,87.89
2017-10-11T20:38:06.504Z,88.54
2017-10-11T20:40:34.863Z,87.95
2017-10-11T20:43:03.860Z,88.20
2017-10-11T20:45:33.162Z,87.76
2017-10-11T20:48:02.480Z,88.91
2017-10-11T20:50:32.487Z,88.51
2017-10-11T20:53:01.720Z,87.92
2017-10-11T20:55:30.078Z,88.37
2017-10-11T20:57:59.377Z,88.19
2017-10-11T21:00:29.059Z,88.25
2017-10-11T21:02:58.594Z,88.45
2017-10-11T21:05:27.929Z,88.37
2017-10-11T21:07:56.379Z,88.89
2017-10-11T21:10:25.564Z,88.90
2017-10-11T21:12:53.903Z,88.33
2017-10-11T21:15:22.346Z,88.94
2017-10-11T21:17:50.724Z,88.54
2017-10-11T21:20:19.083Z,88.02
2017-10-11T21:22:48.190Z,88.18
2017-10-11T21:25:17.422Z,89.05
2017-10-11T21:27:45.814Z,88.70
2017-10-11T21:30:14.162Z,88.19
2017-10-11T21:32:42.515Z,88.60
2017-10-11T21:35:11.870Z,89.36
2017-10-11T21:37:40.325Z,89.80
2017-10-11T21:40:08.996Z,90.09
2017-10-11T21:42:37.328Z,89.61
2017-10-11T21:45:05.662Z,89.79
2017-10-11T21:47:34.986Z,89.27
2017-10-11T21:50:03.332Z,89.25
2017-10-11T21:52:32.657Z,89.16
2017-10-11T21:55:01.034Z,88.68
2017-10-11T21:57:30.589Z,88.96
2017-10-11T21:59:59.010Z,89.37
2017-10-11T22:02:28.306Z,88.76
2017-10-11T22:04:57.615Z,88.62
2017-10-11T22:07:30.447Z,89.17
2017-10-11T22:09:58.980Z,88.70
2017-10-11T22:12:28.329Z,89.63
2017-10-11T22:15:01.158Z,88.73
2017-10-11T22:17:29.585Z,89.23
2017-10-11T22:19:58.085Z,88.66
2017-10-11T22:22:26.433Z,88.70
2017-10-11T22:24:55.717Z,89.15
2017-10-11T22:27:25.038Z,89.56
2017-10-11T22:29:53.397Z,89.67
2017-10-11T22:32:21.780Z,88.92
2017-10-11T22:34:51.063Z,89.02
2017-10-11T22:37:19.462Z,89.61
2017-10-11T22:39:48.787Z,89.51
2017-10-11T22:42:17.134Z,89.24
2017-10-11T22:44:46.491Z,89.15
2017-10-11T22:47:19.136Z,89.68
2017-10-11T22:49:48.114Z,89.29
2017-10-11T22:52:17.342Z,89.24
2017-10-11T22:54:46.519Z,89.45
2017-10-11T22:57:14.770Z,89.54
2017-10-11T22:59:44.224Z,89.71
2017-10-11T23:02:12.506Z,89.72
2017-10-11T23:04:40.848Z,88.87
2017-10-11T23:07:10.105Z,88.44
2017-10-11T23:09:38.555Z,89.17
2017-10-11T23:12:06.883Z,89.32
2017-10-11T23:14:35.260Z,89.22
2017-10-11T23:17:03.628Z,88.91
2017-10-11T23:19:32.016Z,89.16
2017-10-11T23:22:00.427Z,89.21
2017-10-11T23:24:28.768Z,89.44
2017-10-11T23:26:57.168Z,89.75
2017-10-11T23:29:25.849Z,89.77
2017-10-11T23:31:54.187Z,89.87
2017-10-11T23:34:23.500Z,89.72
2017-10-11T23:36:51.895Z,90.75
2017-10-11T23:39:20.279Z,90.12
2017-10-11T23:41:48.681Z,90.42
2017-10-11T23:44:17.049Z,90.38
2017-10-11T23:46:45.811Z,90.29
2017-10-11T23:49:14.221Z,90.21
2017-10-11T23:51:42.503Z,90.69
2017-10-11T23:54:10.858Z,90.21
2017-10-11T23:56:39.257Z,90.30
2017-10-11T23:59:07.619Z,89.78
